createdAt,value
2017-05-15T00:00:43.408Z,76.00
2017-05-15T00:03:11.331Z,76.50
2017-05-15T00:05:40.004Z,76.60
2017-05-15T00:08:07.987Z,76.20
2017-05-15T00:10:36.294Z,76.60
2017-05-15T00:13:04.597Z,77.20
2017-05-15T00:18:01.846Z,78.40
2017-05-15T00:22:59.431Z,78.70
2017-05-15T00:25:28.472Z,79.60
2017-05-15T00:27:56.391Z,79.20
2017-05-15T00:30:24.743Z,78.80
2017-05-15T00:32:53.408Z,79.60
2017-05-15T00:35:21.707Z,78.40
2017-05-15T00:37:50.064Z,77.60
2017-05-15T00:42:47.304Z,75.70
2017-05-15T00:45:15.690Z,76.70
2017-05-15T00:47:43.622Z,76.60
2017-05-15T00:52:41.735Z,77.80
2017-05-15T00:55:10.407Z,76.00
2017-05-15T00:57:38.711Z,76.30
2017-05-15T01:02:35.947Z,76.80
2017-05-15T01:05:04.999Z,77.70
2017-05-15T01:10:02.259Z,77.40
2017-05-15T01:12:30.561Z,76.90
2017-05-15T01:14:58.543Z,76.20
2017-05-15T01:17:27.211Z,76.70
2017-05-15T01:19:55.511Z,75.90
2017-05-15T01:24:53.067Z,76.60
2017-05-15T01:27:21.019Z,75.10
2017-05-15T01:29:49.769Z,73.90
2017-05-15T01:32:18.083Z,75.00
2017-05-15T01:34:46.610Z,74.20
2017-05-15T01:37:15.723Z,75.00
2017-05-15T01:39:43.648Z,74.40
2017-05-15T01:42:12.678Z,74.70
2017-05-15T01:47:10.035Z,72.30
2017-05-15T01:49:38.706Z,72.70
2017-05-15T01:52:07.043Z,73.30
2017-05-15T01:57:04.265Z,73.20
2017-05-15T01:59:32.627Z,72.50
2017-05-15T02:02:00.552Z,73.90
2017-05-15T02:04:29.591Z,74.20
2017-05-15T02:06:57.942Z,74.30
2017-05-15T02:09:26.239Z,73.80
2017-05-15T02:14:23.972Z,74.70
2017-05-15T02:16:52.653Z,76.10
2017-05-15T02:19:21.333Z,75.20
2017-05-15T02:21:49.687Z,75.70
2017-05-15T02:24:18.020Z,74.30
2017-05-15T02:26:45.959Z,73.20
2017-05-15T02:29:14.113Z,72.30
2017-05-15T02:31:42.042Z,72.50
2017-05-15T02:34:09.963Z,73.90
2017-05-15T02:36:38.315Z,71.80
2017-05-15T02:39:06.984Z,72.80
2017-05-15T02:41:35.294Z,72.90
2017-05-15T02:46:32.654Z,72.60
2017-05-15T02:49:00.946Z,72.60
2017-05-15T02:51:29.308Z,73.10
2017-05-15T02:58:56.155Z,74.70
2017-05-15T03:01:25.191Z,75.10
2017-05-15T03:03:53.483Z,75.30
2017-05-15T03:06:22.575Z,75.70
2017-05-15T03:08:50.875Z,76.00
2017-05-15T03:11:19.922Z,75.60
2017-05-15T03:13:47.921Z,74.50
2017-05-15T03:16:15.891Z,74.40
2017-05-15T03:18:44.187Z,73.80
2017-05-15T03:21:12.898Z,75.40
2017-05-15T03:26:10.447Z,76.70
2017-05-15T03:28:39.919Z,77.80
2017-05-15T03:31:09.039Z,76.90
2017-05-15T03:33:37.335Z,76.70
2017-05-15T03:36:05.683Z,76.30
2017-05-15T03:41:03.249Z,76.60
2017-05-15T03:46:00.476Z,77.40
2017-05-15T03:48:28.776Z,77.20
2017-05-15T03:50:57.490Z,77.80
2017-05-15T03:53:25.789Z,78.10
2017-05-15T03:55:53.716Z,78.40
2017-05-15T03:58:22.424Z,78.80
2017-05-15T04:00:50.362Z,77.30
2017-05-15T04:03:18.660Z,77.90
2017-05-15T04:05:47.044Z,77.50
2017-05-15T04:08:15.358Z,78.70
2017-05-15T04:10:43.650Z,79.10
2017-05-15T04:15:41.259Z,78.90
2017-05-15T04:18:09.555Z,80.40
2017-05-15T04:20:37.535Z,80.50
2017-05-15T04:23:05.841Z,80.70
2017-05-15T04:25:34.174Z,81.20
2017-05-15T04:30:31.415Z,82.10
2017-05-15T04:32:59.338Z,81.30
2017-05-15T04:35:27.686Z,81.90
2017-05-15T04:40:25.619Z,81.50
2017-05-15T04:42:53.966Z,82.10
2017-05-15T04:47:51.151Z,82.00
2017-05-15T04:50:19.546Z,83.00
2017-05-15T04:52:48.618Z,82.20
2017-05-15T04:55:16.934Z,82.10
2017-05-15T04:57:45.333Z,82.40
2017-05-15T05:00:13.275Z,83.00
2017-05-15T05:02:41.575Z,83.40
2017-05-15T05:05:09.986Z,83.50
2017-05-15T05:07:37.899Z,83.50
2017-05-15T05:10:06.203Z,83.70
2017-05-15T05:12:35.291Z,84.00
2017-05-15T05:15:03.225Z,83.80
2017-05-15T05:20:24.210Z,83.80
2017-05-15T05:23:10.852Z,81.60
2017-05-15T05:26:00.620Z,83.30
2017-05-15T05:28:49.500Z,82.50
2017-05-15T05:31:38.682Z,83.00
2017-05-15T05:46:58.750Z,80.00
2017-05-15T05:49:27.850Z,78.70
2017-05-15T05:51:56.150Z,76.00
2017-05-15T05:54:27.107Z,71.40
2017-05-15T05:57:11.118Z,70.10
2017-05-15T05:59:48.715Z,69.80
2017-05-15T06:05:14.254Z,70.80
2017-05-15T06:07:54.377Z,71.10
2017-05-15T06:13:21.722Z,64.50
2017-05-15T06:16:02.328Z,65.90
2017-05-15T06:18:42.407Z,64.20
2017-05-15T06:23:50.761Z,65.20
2017-05-15T06:26:44.283Z,66.60
2017-05-15T06:31:41.814Z,67.80
2017-05-15T06:36:39.031Z,66.30
2017-05-15T06:39:19.201Z,64.30
2017-05-15T06:41:58.999Z,65.90
2017-05-15T06:44:28.084Z,65.20
2017-05-15T06:49:25.639Z,63.80
2017-05-15T06:54:22.859Z,62.10
2017-05-15T06:56:51.164Z,63.20
2017-05-15T06:59:20.259Z,61.80
2017-05-15T07:01:48.567Z,61.10
2017-05-15T07:04:16.898Z,60.80
2017-05-15T07:06:49.627Z,61.00
2017-05-15T07:09:18.303Z,62.40
2017-05-15T07:11:46.612Z,59.80
2017-05-15T07:14:14.587Z,59.60
2017-05-15T07:21:41.072Z,58.90
2017-05-15T07:26:38.250Z,59.60
2017-05-15T07:29:07.344Z,57.50
2017-05-15T07:31:35.284Z,57.50
2017-05-15T07:34:04.326Z,58.30
2017-05-15T07:36:32.939Z,57.10
2017-05-15T07:39:01.971Z,55.20
2017-05-15T07:41:30.267Z,57.70
2017-05-15T07:43:59.352Z,57.70
2017-05-15T07:48:56.162Z,56.30
2017-05-15T07:51:24.502Z,56.30
2017-05-15T07:53:53.539Z,55.70
2017-05-15T07:56:21.844Z,54.20
2017-05-15T08:01:19.108Z,55.20
2017-05-15T08:03:47.045Z,53.00
2017-05-15T08:06:15.036Z,52.20
2017-05-15T08:08:42.959Z,53.60
2017-05-15T08:11:11.251Z,55.20
2017-05-15T08:13:39.214Z,54.40
2017-05-15T08:16:07.509Z,55.00
2017-05-15T08:18:35.833Z,53.20
2017-05-15T08:21:04.191Z,52.70
2017-05-15T08:23:32.114Z,52.90
2017-05-15T08:26:00.406Z,53.30
2017-05-15T08:30:58.004Z,49.40
2017-05-15T08:33:26.304Z,51.30
2017-05-15T08:35:54.278Z,50.20
2017-05-15T08:38:22.566Z,49.00
2017-05-15T08:40:50.500Z,47.80
2017-05-15T08:43:19.096Z,48.70
2017-05-15T08:45:47.408Z,52.60
2017-05-15T08:53:13.191Z,49.00
2017-05-15T08:55:41.111Z,47.70
2017-05-15T08:58:09.460Z,46.50
2017-05-15T09:00:37.755Z,48.00
2017-05-15T09:03:06.066Z,44.90
2017-05-15T09:05:34.046Z,45.30
2017-05-15T09:10:31.257Z,45.90
2017-05-15T09:12:59.966Z,47.20
2017-05-15T09:15:28.255Z,43.90
2017-05-15T09:17:56.179Z,42.60
2017-05-15T09:20:24.154Z,43.70
2017-05-15T09:22:52.444Z,43.10
2017-05-15T09:30:18.976Z,42.10
2017-05-15T09:32:46.933Z,45.90
2017-05-15T09:35:14.959Z,43.20
2017-05-15T09:37:43.255Z,42.60
2017-05-15T09:40:11.179Z,44.20
2017-05-15T09:42:39.535Z,43.80
2017-05-15T09:45:07.825Z,43.30
2017-05-15T09:47:36.857Z,44.40
2017-05-15T09:52:34.500Z,40.80
2017-05-15T09:55:02.791Z,37.70
2017-05-15T09:57:31.131Z,40.20
2017-05-15T10:00:00.166Z,36.20
2017-05-15T10:02:28.095Z,39.30
2017-05-15T10:12:22.751Z,32.70
2017-05-15T10:17:19.944Z,33.00
2017-05-15T10:19:48.305Z,36.60
2017-05-15T10:24:45.495Z,37.10
2017-05-15T10:27:13.846Z,36.70
2017-05-15T10:29:42.135Z,34.10
2017-05-15T10:32:10.431Z,39.40
2017-05-15T10:34:38.403Z,39.80
2017-05-15T10:42:05.795Z,35.50
2017-05-15T10:44:34.474Z,35.30
2017-05-15T10:47:03.513Z,33.80
2017-05-15T10:49:32.591Z,34.10
2017-05-15T10:52:01.259Z,33.40
2017-05-15T10:54:29.552Z,33.30
2017-05-15T10:59:27.740Z,31.30
2017-05-15T11:01:56.030Z,34.60
2017-05-15T11:04:24.371Z,36.80
2017-05-15T11:06:53.404Z,35.30
2017-05-15T11:09:21.711Z,28.50
2017-05-15T11:11:50.065Z,32.50
2017-05-15T11:14:18.379Z,31.00
2017-05-15T11:19:15.715Z,33.20
2017-05-15T11:21:44.747Z,29.40
2017-05-15T11:24:13.787Z,34.20
2017-05-15T11:26:42.130Z,33.20
2017-05-15T11:29:10.054Z,32.20
2017-05-15T11:31:38.343Z,29.30
2017-05-15T11:34:06.333Z,29.50
2017-05-15T11:36:34.260Z,26.30
2017-05-15T11:39:02.559Z,28.70
2017-05-15T11:41:31.647Z,29.00
2017-05-15T11:44:00.682Z,25.60
2017-05-15T11:46:28.974Z,29.70
2017-05-15T11:48:58.070Z,29.20
2017-05-15T11:53:55.983Z,30.00
2017-05-15T11:58:54.237Z,28.10
2017-05-15T12:01:22.532Z,25.20
2017-05-15T12:06:19.776Z,28.00
2017-05-15T12:11:17.401Z,26.90
2017-05-15T12:13:46.097Z,28.10
2017-05-15T12:21:12.467Z,28.90
2017-05-15T12:23:40.766Z,30.80
2017-05-15T12:26:08.807Z,26.20
2017-05-15T12:28:37.107Z,30.00
2017-05-15T12:31:06.158Z,30.10
2017-05-15T12:36:03.904Z,30.00
2017-05-15T12:38:31.835Z,31.70
2017-05-15T12:41:00.170Z,29.80
2017-05-15T12:45:57.357Z,29.20
2017-05-15T12:48:25.701Z,28.90
2017-05-15T12:50:54.000Z,28.00
2017-05-15T12:53:21.935Z,32.90
2017-05-15T12:55:49.904Z,31.20
2017-05-15T13:00:47.151Z,28.00
2017-05-15T13:03:16.257Z,26.50
2017-05-15T13:05:44.558Z,27.40
2017-05-15T13:08:12.846Z,26.80
2017-05-15T13:10:41.196Z,30.00
2017-05-15T13:13:09.119Z,26.80
2017-05-15T13:15:37.411Z,26.70
2017-05-15T13:18:05.788Z,27.00
2017-05-15T13:23:02.990Z,29.70
2017-05-15T13:25:31.447Z,27.80
2017-05-15T13:27:59.371Z,28.90
2017-05-15T13:30:27.658Z,27.20
2017-05-15T13:32:55.662Z,26.50
2017-05-15T13:35:23.951Z,28.00
2017-05-15T13:37:51.887Z,30.80
2017-05-15T13:47:46.639Z,28.10
2017-05-15T13:50:14.575Z,32.30
2017-05-15T13:52:42.867Z,29.60
2017-05-15T13:55:11.358Z,31.30
2017-05-15T13:57:39.282Z,31.20
2017-05-15T14:00:07.579Z,28.40
2017-05-15T14:02:35.934Z,26.90
2017-05-15T14:05:03.855Z,27.00
2017-05-15T14:07:32.154Z,27.80
2017-05-15T14:12:29.367Z,25.80
2017-05-15T14:14:57.663Z,29.10
2017-05-15T14:17:25.622Z,29.10
2017-05-15T14:19:53.914Z,30.40
2017-05-15T14:22:22.579Z,29.20
2017-05-15T14:27:20.198Z,27.30
2017-05-15T14:29:48.499Z,28.30
2017-05-15T14:32:17.244Z,27.90
2017-05-15T14:34:45.607Z,29.30
2017-05-15T14:42:11.707Z,27.80
2017-05-15T14:44:39.636Z,28.20
2017-05-15T14:52:05.379Z,29.90
2017-05-15T14:54:33.358Z,31.50
2017-05-15T14:57:02.019Z,28.80
2017-05-15T15:04:27.738Z,27.40
2017-05-15T15:06:56.403Z,28.90
2017-05-15T15:09:24.770Z,29.30
2017-05-15T15:11:53.066Z,30.10
2017-05-15T15:14:21.383Z,30.00
2017-05-15T15:16:49.503Z,26.70
2017-05-15T15:21:47.058Z,27.80
2017-05-15T15:26:44.675Z,25.50
2017-05-15T15:31:42.267Z,28.60
2017-05-15T15:34:10.196Z,28.50
2017-05-15T15:36:39.230Z,28.50
2017-05-15T15:39:07.567Z,26.60
2017-05-15T15:41:35.505Z,27.10
2017-05-15T15:44:03.430Z,28.70
2017-05-15T15:49:00.656Z,27.30
2017-05-15T15:53:58.246Z,26.40
2017-05-15T15:56:26.539Z,26.90
2017-05-15T15:58:54.833Z,27.70
2017-05-15T16:01:22.807Z,27.20
2017-05-15T16:03:51.108Z,27.20
2017-05-15T16:06:19.408Z,26.70
2017-05-15T16:11:16.747Z,27.10
2017-05-15T16:13:45.047Z,27.10
2017-05-15T16:16:13.023Z,27.80
2017-05-15T16:18:41.715Z,29.00
2017-05-15T16:26:07.466Z,28.20
2017-05-15T16:28:35.395Z,26.40
2017-05-15T16:31:04.111Z,26.70
2017-05-15T16:33:32.053Z,26.50
2017-05-15T16:36:01.105Z,26.90
2017-05-15T16:40:58.367Z,26.50
2017-05-15T16:43:27.411Z,29.00
2017-05-15T16:45:56.029Z,27.90
2017-05-15T16:48:25.091Z,28.80
2017-05-15T16:50:53.383Z,28.10
2017-05-15T16:53:21.815Z,31.30
2017-05-15T16:55:50.099Z,29.60
2017-05-15T16:58:18.784Z,27.10
2017-05-15T17:00:47.153Z,28.00
2017-05-15T17:03:15.088Z,30.40
2017-05-15T17:10:41.704Z,30.00
2017-05-15T17:15:38.626Z,30.90
2017-05-15T17:18:06.931Z,30.20
2017-05-15T17:25:32.675Z,30.20
2017-05-15T17:30:30.266Z,30.00
2017-05-15T17:32:58.606Z,30.70
2017-05-15T17:35:26.551Z,29.40
2017-05-15T17:37:54.562Z,29.60
2017-05-15T17:40:22.846Z,30.40
2017-05-15T17:42:51.134Z,30.70
2017-05-15T17:45:19.470Z,30.00
2017-05-15T17:47:47.763Z,30.90
2017-05-15T17:50:16.050Z,29.60
2017-05-15T17:55:14.043Z,29.40
2017-05-15T17:57:42.338Z,29.80
2017-05-15T18:00:11.515Z,31.10
2017-05-15T18:02:40.174Z,31.10
2017-05-15T18:05:08.867Z,31.50
2017-05-15T18:07:37.219Z,33.10
2017-05-15T18:12:34.394Z,29.30
2017-05-15T18:15:02.377Z,30.00
2017-05-15T18:17:30.318Z,32.10
2017-05-15T18:19:58.622Z,31.80
2017-05-15T18:22:26.653Z,31.80
2017-05-15T18:24:54.982Z,30.30
2017-05-15T18:27:22.919Z,29.60
2017-05-15T18:29:51.347Z,30.10
2017-05-15T18:34:49.263Z,30.40
2017-05-15T18:37:17.259Z,30.60
2017-05-15T18:39:46.294Z,32.00
2017-05-15T18:42:14.607Z,31.80
2017-05-15T18:44:42.963Z,31.10
2017-05-15T18:49:40.939Z,31.90
2017-05-15T18:52:08.919Z,32.70
2017-05-15T18:54:36.838Z,32.50
2017-05-15T18:59:33.819Z,34.10
2017-05-15T19:02:02.482Z,34.10
2017-05-15T19:04:31.175Z,33.70
2017-05-15T19:06:59.581Z,35.30
2017-05-15T19:09:28.635Z,33.50
2017-05-15T19:11:56.952Z,32.70
2017-05-15T19:14:25.333Z,35.70
2017-05-15T19:17:14.285Z,34.80
2017-05-15T19:19:43.395Z,35.70
2017-05-15T19:22:12.448Z,36.90
2017-05-15T19:24:40.743Z,37.10
2017-05-15T19:29:38.339Z,35.40
2017-05-15T19:32:06.636Z,35.00
2017-05-15T19:34:34.835Z,38.80
2017-05-15T19:37:02.763Z,39.20
2017-05-15T19:39:31.800Z,41.70
2017-05-15T19:42:00.175Z,43.90
2017-05-15T19:44:28.501Z,43.20
2017-05-15T19:46:56.810Z,42.90
2017-05-15T19:49:25.207Z,42.60
2017-05-15T19:56:50.962Z,41.50
2017-05-15T19:59:19.259Z,43.40
2017-05-15T20:01:47.184Z,42.30
2017-05-15T20:04:15.914Z,44.40
2017-05-15T20:06:44.221Z,37.80
2017-05-15T20:09:12.528Z,41.70
2017-05-15T20:11:40.931Z,40.80
2017-05-15T20:14:09.599Z,44.20
2017-05-15T20:16:37.899Z,41.40
2017-05-15T20:19:05.914Z,40.60
2017-05-15T20:24:03.464Z,35.10
2017-05-15T20:26:32.195Z,35.20
2017-05-15T20:29:00.511Z,37.60
2017-05-15T20:31:28.466Z,37.60
2017-05-15T20:33:56.502Z,38.80
2017-05-15T20:36:24.819Z,43.00
2017-05-15T20:38:52.754Z,40.10
2017-05-15T20:41:21.211Z,38.00
2017-05-15T20:43:49.511Z,36.00
2017-05-15T20:46:17.442Z,38.60
2017-05-15T20:53:44.221Z,37.80
2017-05-15T20:56:12.578Z,39.30
2017-05-15T20:58:40.513Z,38.40
2017-05-15T21:01:08.850Z,37.80
2017-05-15T21:03:38.019Z,38.40
2017-05-15T21:06:05.942Z,37.60
2017-05-15T21:08:34.243Z,37.00
2017-05-15T21:11:03.655Z,37.90
2017-05-15T21:13:32.328Z,37.90
2017-05-15T21:16:00.287Z,38.10
2017-05-15T21:18:29.048Z,37.60
2017-05-15T21:20:57.047Z,37.10
2017-05-15T21:23:25.373Z,38.30
2017-05-15T21:25:53.776Z,39.00
2017-05-15T21:28:22.079Z,38.80
2017-05-15T21:33:19.719Z,37.90
2017-05-15T21:35:48.391Z,38.60
2017-05-15T21:38:17.438Z,39.00
2017-05-15T21:40:45.819Z,39.00
2017-05-15T21:45:43.774Z,39.60
2017-05-15T21:48:12.128Z,39.40
2017-05-15T21:50:40.795Z,40.10
2017-05-15T21:55:38.423Z,42.80
2017-05-15T21:58:06.775Z,39.70
2017-05-15T22:00:35.062Z,40.00
2017-05-15T22:03:03.406Z,39.20
2017-05-15T22:05:31.714Z,40.00
2017-05-15T22:12:57.552Z,39.90
2017-05-15T22:15:25.880Z,42.00
2017-05-15T22:17:54.235Z,41.30
2017-05-15T22:22:51.418Z,41.10
2017-05-15T22:25:19.398Z,40.60
2017-05-15T22:27:47.691Z,40.20
2017-05-15T22:30:15.992Z,40.70
2017-05-15T22:32:44.025Z,39.50
2017-05-15T22:35:11.958Z,41.10
2017-05-15T22:37:40.260Z,40.20
2017-05-15T22:40:08.375Z,39.30
2017-05-15T22:42:36.307Z,39.50
2017-05-15T22:45:04.611Z,39.40
2017-05-15T22:47:32.590Z,39.90
2017-05-15T22:50:00.894Z,40.10
2017-05-15T22:52:29.202Z,40.80
2017-05-15T22:54:58.083Z,41.30
2017-05-15T22:59:56.067Z,40.40
2017-05-15T23:02:24.068Z,41.10
2017-05-15T23:04:53.215Z,41.30
2017-05-15T23:07:21.514Z,40.40
2017-05-15T23:09:50.903Z,42.00
2017-05-15T23:12:19.574Z,40.90
2017-05-15T23:14:48.616Z,41.60
2017-05-15T23:17:17.728Z,41.40
2017-05-15T23:19:46.038Z,41.50
2017-05-15T23:22:14.351Z,41.50
2017-05-15T23:24:42.970Z,42.40
2017-05-15T23:29:40.533Z,42.60
2017-05-15T23:32:09.259Z,43.00
2017-05-15T23:34:37.186Z,42.30
2017-05-15T23:37:05.482Z,43.10
2017-05-15T23:39:33.483Z,42.50
2017-05-15T23:42:01.782Z,42.60
2017-05-15T23:46:59.414Z,43.10
2017-05-15T23:51:57.354Z,43.40
2017-05-15T23:54:25.727Z,42.80
2017-05-15T23:56:53.674Z,44.40
2017-05-15T23:59:21.602Z,47.20
